Hb106 — WDJ5771 — position and weather

sailwx.info

Track history (hours):
 
Tides and Currents Weather Stations Pressure Air Temp Water Temp Dewpoint Dewpoint Depression Visibility Wind Speed Wind Dir Waves Ship Positions

Hb106

Owner: HNY Ferry Fleet LLC, New York, NY. More information available from US FCC via Universal Licensing System and Coast Guard Vessel Documentation Center.

Last reported at 2017-Nov-28 12:21 UTC. Time now 2017-Dec-12 17:53 UTC.
Position N 40°55' W 073°55'.
Warning: this ship's position is 14 days out of date.

Length 26 m; draft 2 m.

Type: Passenger vessel. MMSI: 367791140.

Date/timePositionNaut miles runAvg speedWind from/ knotsBaromVisibWave heightAir tempDewpointWater temp
2017-Nov-28 12:21N 40°55' W 073°55'720.8
2017-Nov-28 12:00N 40°49' W 073°59'612.9
2017-Nov-28 11:30N 40°42' W 073°58'0 0.0
2017-Nov-27 20:24N 40°42' W 073°58'2 4.1
2017-Nov-27 20:00N 40°44' W 073°58'2 3.2
2017-Nov-27 19:30N 40°42' W 073°58'2 3.1
2017-Nov-27 19:00N 40°42' W 074°00'2 3.4
2017-Nov-27 18:30N 40°43' W 073°58'2 3.5
2017-Nov-27 18:00N 40°45' W 073°58'1 1.6
2017-Nov-27 17:30N 40°44' W 073°58'0 0.2
2017-Nov-27 17:00N 40°44' W 073°58'1 1.4
2017-Nov-27 16:30N 40°45' W 073°58'1 1.3
2017-Nov-27 16:00N 40°44' W 073°58'1 1.8
2017-Nov-27 15:30N 40°43' W 073°58'4 6.2
2017-Nov-27 14:56N 40°46' W 073°56'2 5.6
2017-Nov-27 14:30N 40°44' W 073°58'0 0.7
2017-Nov-27 14:00N 40°45' W 073°58'2 2.3
2017-Nov-27 13:14N 40°46' W 073°57'1 5.2
2017-Nov-27 13:00N 40°45' W 073°57'3 6.5
2017-Nov-27 12:31N 40°42' W 073°60'4 8.3
2017-Nov-27 12:00N 40°46' W 073°57'4 7.5
2017-Nov-27 11:30N 40°42' W 073°59'0 0.0
2017-Nov-27 03:24N 40°42' W 073°58'2 4.6
2017-Nov-27 03:00N 40°44' W 073°58'3 5.1
2017-Nov-27 02:30N 40°42' W 074°00'2 4.2
2017-Nov-27 02:00N 40°43' W 073°58'1 1.2
2017-Nov-27 01:30N 40°44' W 073°58'3 5.1
2017-Nov-27 01:00N 40°42' W 074°00'2 4.1
2017-Nov-27 00:29N 40°43' W 073°58'1 1.2
2017-Nov-27 00:00N 40°44' W 073°58'3 5.1
2017-Nov-26 23:30N 40°42' W 074°00'2 4.3
2017-Nov-26 23:00N 40°43' W 073°58'1 1.2
2017-Nov-26 22:30N 40°44' W 073°58'3 5.1
2017-Nov-26 22:00N 40°42' W 074°00'2 4.3
2017-Nov-26 21:30N 40°43' W 073°58'1 1.7
2017-Nov-26 21:00N 40°44' W 073°58'3 5.4
2017-Nov-26 20:30N 40°42' W 074°00'2 4.2
2017-Nov-26 20:00N 40°43' W 073°58'1 1.3
2017-Nov-26 19:30N 40°44' W 073°58'3 5.0
2017-Nov-26 19:00N 40°42' W 074°00'2 4.2
2017-Nov-26 18:30N 40°43' W 073°58'1 1.2
2017-Nov-26 18:00N 40°44' W 073°58'3 4.9
2017-Nov-26 17:29N 40°42' W 074°00'2 4.3
2017-Nov-26 17:00N 40°43' W 073°58'1 1.2
2017-Nov-26 16:30N 40°44' W 073°58'3 5.2
2017-Nov-26 16:00N 40°42' W 074°00'2 4.2
2017-Nov-26 15:30N 40°43' W 073°58'1 1.2
2017-Nov-26 15:00N 40°44' W 073°58'3 5.2
2017-Nov-26 14:30N 40°42' W 074°00'2 4.3
2017-Nov-26 14:00N 40°43' W 073°58'1 1.2
2017-Nov-26 13:30N 40°44' W 073°58'3 5.0
2017-Nov-26 13:00N 40°42' W 074°00'2 4.3
2017-Nov-26 12:30N 40°43' W 073°58'1 1.3
2017-Nov-26 12:00N 40°44' W 073°58'2 3.8
2017-Nov-26 11:30N 40°42' W 073°59'1 0.1
2017-Nov-26 03:19N 40°42' W 073°58'1 3.7
2017-Nov-26 03:00N 40°42' W 073°60'3 5.4
2017-Nov-26 02:30N 40°45' W 073°58'2 4.3
2017-Nov-26 02:00N 40°43' W 073°58'1 2.3
2017-Nov-26 01:30N 40°42' W 073°60'3 5.4
2017-Nov-26 01:01N 40°45' W 073°58'2 4.1
2017-Nov-26 00:30N 40°43' W 073°58'1 2.4
2017-Nov-26 00:00N 40°42' W 073°60'3 5.4
2017-Nov-25 23:31N 40°45' W 073°58'2 4.4
2017-Nov-25 23:00N 40°42' W 073°59'1 1.7
2017-Nov-25 22:31N 40°42' W 073°60'3 5.3
2017-Nov-25 22:00N 40°45' W 073°58'2 4.4
2017-Nov-25 21:30N 40°43' W 073°58'1 2.4
2017-Nov-25 21:01N 40°42' W 073°60'3 5.4
2017-Nov-25 20:30N 40°45' W 073°58'2 4.3
2017-Nov-25 20:01N 40°43' W 073°58'1 2.4
2017-Nov-25 19:30N 40°42' W 073°60'3 5.4
2017-Nov-25 19:00N 40°45' W 073°58'2 4.4
2017-Nov-25 18:31N 40°42' W 073°59'0 0.6
2017-Nov-25 18:00N 40°42' W 073°59'2 4.8
2017-Nov-25 17:30N 40°45' W 073°58'2 4.3
2017-Nov-25 17:00N 40°43' W 073°58'1 2.1
2017-Nov-25 16:30N 40°42' W 073°60'3 5.0
2017-Nov-25 16:00N 40°45' W 073°58'2 4.4
2017-Nov-25 15:30N 40°43' W 073°58'1 2.3
2017-Nov-25 15:00N 40°42' W 073°60'3 5.3
2017-Nov-25 14:30N 40°45' W 073°58'2 4.4
2017-Nov-25 14:00N 40°43' W 073°58'1 2.4
2017-Nov-25 13:31N 40°42' W 073°60'3 5.4
2017-Nov-25 13:01N 40°44' W 073°58'2 4.0
2017-Nov-25 12:31N 40°43' W 073°58'0 1.0
2017-Nov-25 12:00N 40°42' W 073°58'0 0.0
2017-Nov-25 02:43N 40°42' W 073°58'1 5.9
2017-Nov-25 02:31N 40°43' W 073°58'2 3.3
2017-Nov-25 02:00N 40°42' W 073°60'1 1.9
2017-Nov-25 01:30N 40°43' W 073°59'2 4.1
2017-Nov-25 01:00N 40°45' W 073°58'2 4.8
2017-Nov-25 00:30N 40°42' W 073°58'1 2.2
2017-Nov-25 00:00N 40°43' W 073°58'1 1.9
2017-Nov-24 23:30N 40°44' W 073°58'3 5.4
2017-Nov-24 23:00N 40°42' W 074°00'2 4.1
2017-Nov-24 22:30N 40°43' W 073°58'1 1.1
2017-Nov-24 21:59N 40°44' W 073°58'3 5.3
2017-Nov-24 21:30N 40°42' W 074°00'2 4.3
2017-Nov-24 21:00N 40°43' W 073°58'2 3.1
2017-Nov-24 20:30N 40°42' W 073°60'2 4.2
2017-Nov-24 20:00N 40°44' W 073°58'1 1.4
2017-Nov-24 19:30N 40°43' W 073°58'1 2.5
2017-Nov-24 19:01N 40°42' W 073°58'1 2.2
2017-Nov-24 18:30N 40°42' W 073°60'4 7.3
2017-Nov-24 18:00N 40°39' W 074°02'2 4.2
2017-Nov-24 17:30N 40°41' W 074°01'4 8.0
2017-Nov-24 17:01N 40°44' W 073°58'0 0.7
2017-Nov-24 16:31N 40°45' W 073°58'1 2.0
2017-Nov-24 16:00N 40°45' W 073°57'1 2.0
2017-Nov-24 15:28N 40°46' W 073°56'4 9.7
2017-Nov-24 15:00N 40°42' W 073°58'1 1.3
2017-Nov-24 14:31N 40°43' W 073°58'2 3.8
2017-Nov-24 14:00N 40°45' W 073°58'3 6.0
2017-Nov-24 13:30N 40°42' W 074°00'2 4.2
2017-Nov-24 13:00N 40°43' W 073°58'1 1.8
2017-Nov-24 12:30N 40°44' W 073°58'3 5.2
2017-Nov-24 12:01N 40°42' W 074°00'1 2.7
2017-Nov-24 11:30N 40°42' W 073°58'0 0.0
2017-Nov-23 22:46N 40°42' W 073°58'2 5.9
2017-Nov-23 22:30N 40°42' W 074°00'1 2.4
2017-Nov-23 22:00N 40°42' W 073°59'1 1.2
2017-Nov-23 21:30N 40°42' W 073°58'0 0.0
2017-Nov-23 14:11N 40°42' W 073°58'1 3.1
2017-Nov-23 14:00N 40°42' W 073°59'1 1.7
2017-Nov-23 13:30N 40°42' W 073°60'3 5.6
2017-Nov-23 13:00N 40°45' W 073°58'2 4.1
2017-Nov-23 12:31N 40°43' W 073°58'0 1.0
2017-Nov-23 12:00N 40°42' W 073°58'0 0.0
2017-Nov-22 23:58N 40°42' W 073°58'3 5.8
2017-Nov-22 23:30N 40°45' W 073°58'2 4.3
2017-Nov-22 22:59N 40°46' W 073°56'2 3.8
2017-Nov-22 22:30N 40°45' W 073°58'3 5.7
2017-Nov-22 22:01N 40°42' W 073°58'0 0.0
2017-Nov-22 21:30N 40°42' W 073°58'0 0.0
2017-Nov-22 21:00N 40°42' W 073°58'0 0.0
2017-Nov-22 20:31N 40°42' W 073°58'0 0.0
2017-Nov-22 20:00N 40°42' W 073°58'0 0.0
2017-Nov-22 19:31N 40°42' W 073°58'  
2017-Nov-19 20:14N 40°42' W 073°58'0 0.5
2017-Nov-19 20:01N 40°42' W 073°58'1 2.9
2017-Nov-19 19:30N 40°42' W 074°00'0 0.0
2017-Nov-19 19:00N 40°42' W 074°00'0 0.0
2017-Nov-19 18:30N 40°42' W 074°00'2 3.0
2017-Nov-19 18:00N 40°42' W 073°58'0 0.1
2017-Nov-19 17:30N 40°42' W 073°58'3 5.8
2017-Nov-19 17:01N 40°40' W 074°01'2 4.6
2017-Nov-19 16:30N 40°42' W 073°60'4 7.4
2017-Nov-19 16:01N 40°39' W 074°02'0 0.1
2017-Nov-19 15:30N 40°39' W 074°02'4 7.2
2017-Nov-19 15:00N 40°42' W 073°60'1 1.9
2017-Nov-19 14:31N 40°41' W 074°00'3 6.6
2017-Nov-19 14:00N 40°38' W 074°02'3 6.4
2017-Nov-19 13:30N 40°41' W 074°01'1 2.2
2017-Nov-19 13:00N 40°42' W 073°60'4 7.4
2017-Nov-19 12:30N 40°39' W 074°02'4 8.2
2017-Nov-19 12:00N 40°42' W 073°58'0 0.0
2017-Nov-19 11:30N 40°42' W 073°58'0 0.0
2017-Nov-19 03:22N 40°42' W 073°58'411.6
2017-Nov-19 03:00N 40°46' W 073°56'3 6.4
2017-Nov-19 02:31N 40°43' W 073°58'1 2.7
2017-Nov-19 02:00N 40°45' W 073°58'2 3.9
2017-Nov-19 01:26N 40°46' W 073°56'2 4.1
2017-Nov-19 01:00N 40°45' W 073°57'2 4.0
2017-Nov-19 00:31N 40°43' W 073°58'4 5.7
2017-Nov-18 23:52N 40°46' W 073°56'1 3.2
2017-Nov-18 23:30N 40°45' W 073°57'4 8.1
2017-Nov-18 23:00N 40°42' W 074°00'4 8.0
2017-Nov-18 22:30N 40°45' W 073°57'1 1.1
2017-Nov-18 21:59N 40°46' W 073°57'2 5.0
2017-Nov-18 21:30N 40°44' W 073°58'1 1.6
2017-Nov-18 21:00N 40°45' W 073°58'2 3.7
2017-Nov-18 20:23N 40°46' W 073°56'2 4.6
2017-Nov-18 20:00N 40°45' W 073°57'3 5.5
2017-Nov-18 19:31N 40°42' W 073°59'5 8.7
2017-Nov-18 19:00N 40°46' W 073°56'1 2.4
2017-Nov-18 18:30N 40°45' W 073°57'4 8.1
2017-Nov-18 18:00N 40°42' W 074°00'4 7.8
2017-Nov-18 17:30N 40°45' W 073°57'1 1.9
2017-Nov-18 17:00N 40°46' W 073°56'3 6.5
2017-Nov-18 16:30N 40°43' W 073°58'1 2.5
2017-Nov-18 16:00N 40°45' W 073°58'2 4.3
2017-Nov-18 15:30N 40°46' W 073°56'2 3.3
2017-Nov-18 15:00N 40°45' W 073°58'2 4.7
2017-Nov-18 14:30N 40°43' W 073°59'4 8.1
2017-Nov-18 14:00N 40°46' W 073°56'1 2.3
2017-Nov-18 13:30N 40°45' W 073°57'4 8.1
2017-Nov-18 13:00N 40°42' W 074°00'4 8.0
2017-Nov-18 12:30N 40°45' W 073°57'  
Track history (hours):
 
Tides and Currents Weather Stations Pressure Air Temp Water Temp Dewpoint Dewpoint Depression Visibility Wind Speed Wind Dir Waves Ship Positions

Hb106

Owner: HNY Ferry Fleet LLC, New York, NY. More information available from US FCC via Universal Licensing System and Coast Guard Vessel Documentation Center.

Last reported at 2017-Nov-28 12:21 UTC. Time now 2017-Dec-12 17:53 UTC.
Position N 40°55' W 073°55'.
Warning: this ship's position is 14 days out of date.

Length 26 m; draft 2 m.

Type: Passenger vessel. MMSI: 367791140.

Date/timePositionNaut miles runAvg speedWind from/ knotsBaromVisibWave heightAir tempDewpointWater temp
2017-Nov-28 12:21N 40°55' W 073°55'720.8
2017-Nov-28 12:00N 40°49' W 073°59'612.9
2017-Nov-28 11:30N 40°42' W 073°58'0 0.0
2017-Nov-27 20:24N 40°42' W 073°58'2 4.1
2017-Nov-27 20:00N 40°44' W 073°58'2 3.2
2017-Nov-27 19:30N 40°42' W 073°58'2 3.1
2017-Nov-27 19:00N 40°42' W 074°00'2 3.4
2017-Nov-27 18:30N 40°43' W 073°58'2 3.5
2017-Nov-27 18:00N 40°45' W 073°58'1 1.6
2017-Nov-27 17:30N 40°44' W 073°58'0 0.2
2017-Nov-27 17:00N 40°44' W 073°58'1 1.4
2017-Nov-27 16:30N 40°45' W 073°58'1 1.3
2017-Nov-27 16:00N 40°44' W 073°58'1 1.8
2017-Nov-27 15:30N 40°43' W 073°58'4 6.2
2017-Nov-27 14:56N 40°46' W 073°56'2 5.6
2017-Nov-27 14:30N 40°44' W 073°58'0 0.7
2017-Nov-27 14:00N 40°45' W 073°58'2 2.3
2017-Nov-27 13:14N 40°46' W 073°57'1 5.2
2017-Nov-27 13:00N 40°45' W 073°57'3 6.5
2017-Nov-27 12:31N 40°42' W 073°60'4 8.3
2017-Nov-27 12:00N 40°46' W 073°57'4 7.5
2017-Nov-27 11:30N 40°42' W 073°59'0 0.0
2017-Nov-27 03:24N 40°42' W 073°58'2 4.6
2017-Nov-27 03:00N 40°44' W 073°58'3 5.1
2017-Nov-27 02:30N 40°42' W 074°00'2 4.2
2017-Nov-27 02:00N 40°43' W 073°58'1 1.2
2017-Nov-27 01:30N 40°44' W 073°58'3 5.1
2017-Nov-27 01:00N 40°42' W 074°00'2 4.1
2017-Nov-27 00:29N 40°43' W 073°58'1 1.2
2017-Nov-27 00:00N 40°44' W 073°58'3 5.1
2017-Nov-26 23:30N 40°42' W 074°00'2 4.3
2017-Nov-26 23:00N 40°43' W 073°58'1 1.2
2017-Nov-26 22:30N 40°44' W 073°58'3 5.1
2017-Nov-26 22:00N 40°42' W 074°00'2 4.3
2017-Nov-26 21:30N 40°43' W 073°58'1 1.7
2017-Nov-26 21:00N 40°44' W 073°58'3 5.4
2017-Nov-26 20:30N 40°42' W 074°00'2 4.2
2017-Nov-26 20:00N 40°43' W 073°58'1 1.3
2017-Nov-26 19:30N 40°44' W 073°58'3 5.0
2017-Nov-26 19:00N 40°42' W 074°00'2 4.2
2017-Nov-26 18:30N 40°43' W 073°58'1 1.2
2017-Nov-26 18:00N 40°44' W 073°58'3 4.9
2017-Nov-26 17:29N 40°42' W 074°00'2 4.3
2017-Nov-26 17:00N 40°43' W 073°58'1 1.2
2017-Nov-26 16:30N 40°44' W 073°58'3 5.2
2017-Nov-26 16:00N 40°42' W 074°00'2 4.2
2017-Nov-26 15:30N 40°43' W 073°58'1 1.2
2017-Nov-26 15:00N 40°44' W 073°58'3 5.2
2017-Nov-26 14:30N 40°42' W 074°00'2 4.3
2017-Nov-26 14:00N 40°43' W 073°58'1 1.2
2017-Nov-26 13:30N 40°44' W 073°58'3 5.0
2017-Nov-26 13:00N 40°42' W 074°00'2 4.3
2017-Nov-26 12:30N 40°43' W 073°58'1 1.3
2017-Nov-26 12:00N 40°44' W 073°58'2 3.8
2017-Nov-26 11:30N 40°42' W 073°59'1 0.1
2017-Nov-26 03:19N 40°42' W 073°58'1 3.7
2017-Nov-26 03:00N 40°42' W 073°60'3 5.4
2017-Nov-26 02:30N 40°45' W 073°58'2 4.3
2017-Nov-26 02:00N 40°43' W 073°58'1 2.3
2017-Nov-26 01:30N 40°42' W 073°60'3 5.4
2017-Nov-26 01:01N 40°45' W 073°58'2 4.1
2017-Nov-26 00:30N 40°43' W 073°58'1 2.4
2017-Nov-26 00:00N 40°42' W 073°60'3 5.4
2017-Nov-25 23:31N 40°45' W 073°58'2 4.4
2017-Nov-25 23:00N 40°42' W 073°59'1 1.7
2017-Nov-25 22:31N 40°42' W 073°60'3 5.3
2017-Nov-25 22:00N 40°45' W 073°58'2 4.4
2017-Nov-25 21:30N 40°43' W 073°58'1 2.4
2017-Nov-25 21:01N 40°42' W 073°60'3 5.4
2017-Nov-25 20:30N 40°45' W 073°58'2 4.3
2017-Nov-25 20:01N 40°43' W 073°58'1 2.4
2017-Nov-25 19:30N 40°42' W 073°60'3 5.4
2017-Nov-25 19:00N 40°45' W 073°58'2 4.4
2017-Nov-25 18:31N 40°42' W 073°59'0 0.6
2017-Nov-25 18:00N 40°42' W 073°59'2 4.8
2017-Nov-25 17:30N 40°45' W 073°58'2 4.3
2017-Nov-25 17:00N 40°43' W 073°58'1 2.1
2017-Nov-25 16:30N 40°42' W 073°60'3 5.0
2017-Nov-25 16:00N 40°45' W 073°58'2 4.4
2017-Nov-25 15:30N 40°43' W 073°58'1 2.3
2017-Nov-25 15:00N 40°42' W 073°60'3 5.3
2017-Nov-25 14:30N 40°45' W 073°58'2 4.4
2017-Nov-25 14:00N 40°43' W 073°58'1 2.4
2017-Nov-25 13:31N 40°42' W 073°60'3 5.4
2017-Nov-25 13:01N 40°44' W 073°58'2 4.0
2017-Nov-25 12:31N 40°43' W 073°58'0 1.0
2017-Nov-25 12:00N 40°42' W 073°58'0 0.0
2017-Nov-25 02:43N 40°42' W 073°58'1 5.9
2017-Nov-25 02:31N 40°43' W 073°58'2 3.3
2017-Nov-25 02:00N 40°42' W 073°60'1 1.9
2017-Nov-25 01:30N 40°43' W 073°59'2 4.1
2017-Nov-25 01:00N 40°45' W 073°58'2 4.8
2017-Nov-25 00:30N 40°42' W 073°58'1 2.2
2017-Nov-25 00:00N 40°43' W 073°58'1 1.9
2017-Nov-24 23:30N 40°44' W 073°58'3 5.4
2017-Nov-24 23:00N 40°42' W 074°00'2 4.1
2017-Nov-24 22:30N 40°43' W 073°58'1 1.1
2017-Nov-24 21:59N 40°44' W 073°58'3 5.3
2017-Nov-24 21:30N 40°42' W 074°00'2 4.3
2017-Nov-24 21:00N 40°43' W 073°58'2 3.1
2017-Nov-24 20:30N 40°42' W 073°60'2 4.2
2017-Nov-24 20:00N 40°44' W 073°58'1 1.4
2017-Nov-24 19:30N 40°43' W 073°58'1 2.5
2017-Nov-24 19:01N 40°42' W 073°58'1 2.2
2017-Nov-24 18:30N 40°42' W 073°60'4 7.3
2017-Nov-24 18:00N 40°39' W 074°02'2 4.2
2017-Nov-24 17:30N 40°41' W 074°01'4 8.0
2017-Nov-24 17:01N 40°44' W 073°58'0 0.7
2017-Nov-24 16:31N 40°45' W 073°58'1 2.0
2017-Nov-24 16:00N 40°45' W 073°57'1 2.0
2017-Nov-24 15:28N 40°46' W 073°56'4 9.7
2017-Nov-24 15:00N 40°42' W 073°58'1 1.3
2017-Nov-24 14:31N 40°43' W 073°58'2 3.8
2017-Nov-24 14:00N 40°45' W 073°58'3 6.0
2017-Nov-24 13:30N 40°42' W 074°00'2 4.2
2017-Nov-24 13:00N 40°43' W 073°58'1 1.8
2017-Nov-24 12:30N 40°44' W 073°58'3 5.2
2017-Nov-24 12:01N 40°42' W 074°00'1 2.7
2017-Nov-24 11:30N 40°42' W 073°58'0 0.0
2017-Nov-23 22:46N 40°42' W 073°58'2 5.9
2017-Nov-23 22:30N 40°42' W 074°00'1 2.4
2017-Nov-23 22:00N 40°42' W 073°59'1 1.2
2017-Nov-23 21:30N 40°42' W 073°58'0 0.0
2017-Nov-23 14:11N 40°42' W 073°58'1 3.1
2017-Nov-23 14:00N 40°42' W 073°59'1 1.7
2017-Nov-23 13:30N 40°42' W 073°60'3 5.6
2017-Nov-23 13:00N 40°45' W 073°58'2 4.1
2017-Nov-23 12:31N 40°43' W 073°58'0 1.0
2017-Nov-23 12:00N 40°42' W 073°58'0 0.0
2017-Nov-22 23:58N 40°42' W 073°58'3 5.8
2017-Nov-22 23:30N 40°45' W 073°58'2 4.3
2017-Nov-22 22:59N 40°46' W 073°56'2 3.8
2017-Nov-22 22:30N 40°45' W 073°58'3 5.7
2017-Nov-22 22:01N 40°42' W 073°58'0 0.0
2017-Nov-22 21:30N 40°42' W 073°58'0 0.0
2017-Nov-22 21:00N 40°42' W 073°58'0 0.0
2017-Nov-22 20:31N 40°42' W 073°58'0 0.0
2017-Nov-22 20:00N 40°42' W 073°58'0 0.0
2017-Nov-22 19:31N 40°42' W 073°58'  
2017-Nov-19 20:14N 40°42' W 073°58'0 0.5
2017-Nov-19 20:01N 40°42' W 073°58'1 2.9
2017-Nov-19 19:30N 40°42' W 074°00'0 0.0
2017-Nov-19 19:00N 40°42' W 074°00'0 0.0
2017-Nov-19 18:30N 40°42' W 074°00'2 3.0
2017-Nov-19 18:00N 40°42' W 073°58'0 0.1
2017-Nov-19 17:30N 40°42' W 073°58'3 5.8
2017-Nov-19 17:01N 40°40' W 074°01'2 4.6
2017-Nov-19 16:30N 40°42' W 073°60'4 7.4
2017-Nov-19 16:01N 40°39' W 074°02'0 0.1
2017-Nov-19 15:30N 40°39' W 074°02'4 7.2
2017-Nov-19 15:00N 40°42' W 073°60'1 1.9
2017-Nov-19 14:31N 40°41' W 074°00'3 6.6
2017-Nov-19 14:00N 40°38' W 074°02'3 6.4
2017-Nov-19 13:30N 40°41' W 074°01'1 2.2
2017-Nov-19 13:00N 40°42' W 073°60'4 7.4
2017-Nov-19 12:30N 40°39' W 074°02'4 8.2
2017-Nov-19 12:00N 40°42' W 073°58'0 0.0
2017-Nov-19 11:30N 40°42' W 073°58'0 0.0
2017-Nov-19 03:22N 40°42' W 073°58'411.6
2017-Nov-19 03:00N 40°46' W 073°56'3 6.4
2017-Nov-19 02:31N 40°43' W 073°58'1 2.7
2017-Nov-19 02:00N 40°45' W 073°58'2 3.9
2017-Nov-19 01:26N 40°46' W 073°56'2 4.1
2017-Nov-19 01:00N 40°45' W 073°57'2 4.0
2017-Nov-19 00:31N 40°43' W 073°58'4 5.7
2017-Nov-18 23:52N 40°46' W 073°56'1 3.2
2017-Nov-18 23:30N 40°45' W 073°57'4 8.1
2017-Nov-18 23:00N 40°42' W 074°00'4 8.0
2017-Nov-18 22:30N 40°45' W 073°57'1 1.1
2017-Nov-18 21:59N 40°46' W 073°57'2 5.0
2017-Nov-18 21:30N 40°44' W 073°58'1 1.6
2017-Nov-18 21:00N 40°45' W 073°58'2 3.7
2017-Nov-18 20:23N 40°46' W 073°56'2 4.6
2017-Nov-18 20:00N 40°45' W 073°57'3 5.5
2017-Nov-18 19:31N 40°42' W 073°59'5 8.7
2017-Nov-18 19:00N 40°46' W 073°56'1 2.4
2017-Nov-18 18:30N 40°45' W 073°57'4 8.1
2017-Nov-18 18:00N 40°42' W 074°00'4 7.8
2017-Nov-18 17:30N 40°45' W 073°57'1 1.9
2017-Nov-18 17:00N 40°46' W 073°56'3 6.5
2017-Nov-18 16:30N 40°43' W 073°58'1 2.5
2017-Nov-18 16:00N 40°45' W 073°58'2 4.3
2017-Nov-18 15:30N 40°46' W 073°56'2 3.3
2017-Nov-18 15:00N 40°45' W 073°58'2 4.7
2017-Nov-18 14:30N 40°43' W 073°59'4 8.1
2017-Nov-18 14:00N 40°46' W 073°56'1 2.3
2017-Nov-18 13:30N 40°45' W 073°57'4 8.1
2017-Nov-18 13:00N 40°42' W 074°00'4 8.0
2017-Nov-18 12:30N 40°45' W 073°57'  

Dump ship's entire track history